createdAt,value
2019-06-01T00:03:53.367Z,101574.05
2019-06-01T00:08:58.204Z,101575.13
2019-06-01T00:14:03.066Z,101571.49
2019-06-01T00:19:07.955Z,101574.79
2019-06-01T00:24:12.903Z,101575.17
2019-06-01T00:29:17.803Z,101575.16
2019-06-01T00:34:22.746Z,101566.26
2019-06-01T00:39:27.581Z,101571.28
2019-06-01T00:44:32.541Z,101565.34
2019-06-01T00:49:37.788Z,101569.83
2019-06-01T00:54:43.180Z,101562.25
2019-06-01T00:59:48.174Z,101562.13
2019-06-01T01:05:02.262Z,101568.00
2019-06-01T01:10:07.336Z,101567.53
2019-06-01T01:15:12.368Z,101565.69
2019-06-01T01:20:17.333Z,101569.48
2019-06-01T01:25:22.406Z,101578.16
2019-06-01T01:30:27.439Z,101571.45
2019-06-01T01:35:32.464Z,101562.92
2019-06-01T01:40:37.336Z,101565.31
2019-06-01T01:45:42.885Z,101568.08
2019-06-01T01:50:47.758Z,101555.15
2019-06-01T01:55:52.998Z,101557.77
2019-06-01T02:00:58.523Z,101553.69
2019-06-01T02:06:04.662Z,101549.48
2019-06-01T02:11:09.531Z,101550.23
2019-06-01T02:16:14.420Z,101547.41
2019-06-01T02:21:19.235Z,101539.38
2019-06-01T02:26:24.117Z,101536.16
2019-06-01T02:31:40.637Z,101536.70
2019-06-01T02:36:35.683Z,101537.02
2019-06-01T02:41:40.569Z,101535.16
2019-06-01T02:46:45.411Z,101522.55
2019-06-01T02:51:50.293Z,101520.32
2019-06-01T02:56:55.837Z,101506.91
2019-06-01T03:02:07.309Z,101524.25
2019-06-01T03:07:10.043Z,101517.84
2019-06-01T03:12:17.959Z,101524.73
2019-06-01T03:17:24.558Z,101525.21
2019-06-01T03:22:29.825Z,101528.17
2019-06-01T03:27:36.409Z,101522.97
2019-06-01T03:32:43.881Z,101516.41
2019-06-01T03:37:47.973Z,101516.09
2019-06-01T03:42:52.915Z,101516.37
2019-06-01T03:47:57.775Z,101513.77
2019-06-01T03:53:03.842Z,101520.91
2019-06-01T03:58:09.175Z,101518.63
2019-06-01T04:03:14.111Z,101524.20
2019-06-01T04:08:18.974Z,101530.17
2019-06-01T04:13:23.853Z,101525.96
2019-06-01T04:18:28.734Z,101533.65
2019-06-01T04:23:36.277Z,101536.16
2019-06-01T04:28:40.224Z,101533.23
2019-06-01T04:33:45.182Z,101531.20
2019-06-01T04:38:50.061Z,101533.91
2019-06-01T04:43:54.969Z,101532.72
2019-06-01T04:48:59.877Z,101544.20
2019-06-01T04:54:04.951Z,101550.36
2019-06-01T04:59:29.893Z,101554.73
2019-06-01T05:04:34.795Z,101557.67
2019-06-01T05:09:39.790Z,101554.02
2019-06-01T05:14:44.682Z,101559.06
2019-06-01T05:19:49.546Z,101558.85
2019-06-01T05:25:17.277Z,101556.57
2019-06-01T05:30:29.558Z,101561.76
2019-06-01T05:35:38.793Z,101561.76
2019-06-01T05:41:03.149Z,101566.86
2019-06-01T05:46:11.832Z,101560.49
2019-06-01T05:51:18.497Z,101566.36
2019-06-01T05:56:23.359Z,101570.00
2019-06-01T06:01:28.229Z,101570.62
2019-06-01T06:06:33.126Z,101565.17
2019-06-01T06:11:38.027Z,101572.27
2019-06-01T06:16:42.901Z,101571.08
2019-06-01T06:21:47.773Z,101573.38
2019-06-01T06:26:52.710Z,101571.27
2019-06-01T06:31:57.546Z,101568.48
2019-06-01T06:37:02.442Z,101576.47
2019-06-01T06:42:07.286Z,101574.04
2019-06-01T06:47:12.157Z,101578.63
2019-06-01T06:52:17.449Z,101578.62
2019-06-01T06:57:22.405Z,101574.39
2019-06-01T07:02:27.276Z,101575.34
2019-06-01T07:07:32.144Z,101574.27
2019-06-01T07:12:37.030Z,101575.44
2019-06-01T07:17:41.886Z,101576.06
2019-06-01T07:22:46.754Z,101576.24
2019-06-01T07:27:51.634Z,101575.63
2019-06-01T07:32:56.488Z,101576.94
2019-06-01T07:38:01.358Z,101574.05
2019-06-01T07:43:06.309Z,101566.84
2019-06-01T07:48:11.174Z,101572.27
2019-06-01T07:53:16.080Z,101577.53
2019-06-01T07:58:20.964Z,101573.27
2019-06-01T08:03:28.468Z,101579.73
2019-06-01T08:08:32.457Z,101589.92
2019-06-01T08:13:37.356Z,101583.44
2019-06-01T08:18:43.034Z,101582.58
2019-06-01T08:23:47.936Z,101583.92
2019-06-01T08:28:52.789Z,101587.19
2019-06-01T08:33:57.651Z,101584.52
2019-06-01T08:39:02.544Z,101575.98
2019-06-01T08:44:07.859Z,101571.78
2019-06-01T08:49:12.736Z,101562.09
2019-06-01T08:54:19.651Z,101563.25
2019-06-01T08:59:24.552Z,101562.39
2019-06-01T09:04:30.682Z,101555.59
2019-06-01T09:09:35.684Z,101536.43
2019-06-01T09:14:40.545Z,101538.30
2019-06-01T09:19:45.437Z,101527.16
2019-06-01T09:24:53.302Z,101525.58
2019-06-01T09:29:56.894Z,101531.48
2019-06-01T09:35:01.756Z,101524.15
2019-06-01T09:40:07.724Z,101522.11
2019-06-01T09:45:13.415Z,101528.67
2019-06-01T09:50:18.547Z,101522.22
2019-06-01T09:55:23.444Z,101525.31
2019-06-01T10:00:28.381Z,101523.98
2019-06-01T10:05:34.692Z,101524.17
2019-06-01T10:10:39.908Z,101525.65
2019-06-01T10:15:44.755Z,101523.55
2019-06-01T10:20:49.606Z,101515.08
2019-06-01T10:26:02.422Z,101507.64
2019-06-01T10:31:07.390Z,101505.27
2019-06-01T10:36:20.611Z,101507.34
2019-06-01T10:41:18.842Z,101500.75
2019-06-01T10:46:23.710Z,101488.20
2019-06-01T10:51:28.531Z,101480.49
2019-06-01T10:56:34.398Z,101469.57
2019-06-01T11:01:40.708Z,101470.09
2019-06-01T11:06:48.679Z,101481.41
2019-06-01T11:11:52.562Z,101475.42
2019-06-01T11:16:57.423Z,101456.32
2019-06-01T11:22:02.314Z,101453.99
2019-06-01T11:27:07.537Z,101459.70
2019-06-01T11:32:12.531Z,101451.45
2019-06-01T11:37:17.373Z,101444.38
2019-06-01T11:42:22.234Z,101436.82
2019-06-01T11:47:27.362Z,101428.98
2019-06-01T11:52:32.262Z,101439.19
2019-06-01T11:57:37.543Z,101424.91
2019-06-01T12:02:43.789Z,101417.47
2019-06-01T12:07:48.793Z,101417.17
2019-06-01T12:12:53.664Z,101416.42
2019-06-01T12:17:58.530Z,101416.55
2019-06-01T12:23:03.408Z,101409.20
2019-06-01T12:28:08.259Z,101388.38
2019-06-01T12:33:13.118Z,101381.27
2019-06-01T12:38:18.034Z,101383.21
2019-06-01T12:43:22.893Z,101369.11
2019-06-01T12:48:27.751Z,101372.67
2019-06-01T12:53:32.602Z,101359.55
2019-06-01T12:58:37.450Z,101349.63
2019-06-01T13:03:43.140Z,101335.08
2019-06-01T13:08:48.934Z,101345.58
2019-06-01T13:13:53.836Z,101339.91
2019-06-01T13:18:58.691Z,101337.49
2019-06-01T13:24:04.818Z,101337.94
2019-06-01T13:29:09.695Z,101332.09
2019-06-01T13:34:14.515Z,101313.75
2019-06-01T13:39:19.450Z,101320.19
2019-06-01T13:44:24.270Z,101304.59
2019-06-01T13:49:29.149Z,101298.88
2019-06-01T13:54:34.113Z,101294.66
2019-06-01T13:59:38.959Z,101294.70
2019-06-01T14:04:45.118Z,101290.48
2019-06-01T14:10:09.977Z,101296.77
2019-06-01T14:15:38.856Z,101289.64
2019-06-01T14:21:15.178Z,101285.27
2019-06-01T14:26:30.462Z,101287.14
2019-06-01T14:31:39.813Z,101269.89
2019-06-01T14:37:10.209Z,101272.08
2019-06-01T14:42:40.108Z,101269.58
2019-06-01T14:53:53.869Z,101267.78
2019-06-01T14:59:12.366Z,101263.34
2019-06-01T15:04:17.427Z,101259.89
2019-06-01T15:09:24.967Z,101261.41
2019-06-01T15:14:37.221Z,101256.30
2019-06-01T15:19:45.746Z,101249.22
2019-06-01T15:24:52.290Z,101243.79
2019-06-01T15:30:35.110Z,101243.79
2019-06-01T15:35:36.068Z,101246.77
2019-06-01T15:40:40.920Z,101236.48
2019-06-01T15:45:45.884Z,101234.45
2019-06-01T15:50:51.588Z,101226.36
2019-06-01T15:55:56.658Z,101227.58
2019-06-01T16:01:03.072Z,101226.00
2019-06-01T16:06:08.059Z,101216.04
2019-06-01T16:11:13.297Z,101218.90
2019-06-01T16:16:18.246Z,101206.55
2019-06-01T16:21:23.072Z,101213.01
2019-06-01T16:26:27.920Z,101201.29
2019-06-01T16:31:32.806Z,101206.11
2019-06-01T16:36:37.664Z,101206.61
2019-06-01T16:41:42.582Z,101196.84
2019-06-01T16:46:47.435Z,101193.66
2019-06-01T16:51:59.212Z,101201.09
2019-06-01T16:57:05.364Z,101196.17
2019-06-01T17:02:10.309Z,101197.32
2019-06-01T17:07:15.468Z,101189.08
2019-06-01T17:12:24.985Z,101196.58
2019-06-01T17:17:41.737Z,101194.10
2019-06-01T17:22:46.587Z,101197.53
2019-06-01T17:27:51.451Z,101197.74
2019-06-01T17:32:56.316Z,101191.69
2019-06-01T17:38:01.252Z,101191.11
2019-06-01T17:43:06.972Z,101189.63
2019-06-01T17:48:24.791Z,101185.31
2019-06-01T17:53:18.667Z,101184.28
2019-06-01T17:58:23.517Z,101178.25
2019-06-01T18:03:28.445Z,101177.89
2019-06-01T18:08:33.298Z,101173.55
2019-06-01T18:13:38.115Z,101171.95
2019-06-01T18:18:42.965Z,101179.13
2019-06-01T18:23:49.271Z,101173.96
2019-06-01T18:28:54.249Z,101181.48
2019-06-01T18:33:59.388Z,101179.19
2019-06-01T18:39:07.495Z,101185.23
2019-06-01T18:44:37.097Z,101186.63
2019-06-01T18:49:42.124Z,101187.64
2019-06-01T18:55:10.579Z,101187.94
2019-06-01T19:00:16.279Z,101193.41
2019-06-01T19:05:21.155Z,101194.47
2019-06-01T19:10:25.979Z,101199.20
2019-06-01T19:15:30.897Z,101198.72
2019-06-01T19:20:35.760Z,101196.09
2019-06-01T19:25:40.622Z,101203.77
2019-06-01T19:30:45.758Z,101217.98
2019-06-01T19:35:53.182Z,101221.92
2019-06-01T19:40:58.011Z,101223.05
2019-06-01T19:46:02.876Z,101229.86
2019-06-01T19:51:08.650Z,101235.75
2019-06-01T19:56:14.926Z,101237.46
2019-06-01T20:01:19.946Z,101237.56
2019-06-01T20:06:24.928Z,101247.69
2019-06-01T20:11:29.774Z,101236.51
2019-06-01T20:16:34.792Z,101244.34
2019-06-01T20:21:39.759Z,101244.64
2019-06-01T20:26:48.937Z,101242.97
2019-06-01T20:31:51.264Z,101246.87
2019-06-01T20:36:56.105Z,101244.34
2019-06-01T20:42:19.971Z,101253.84
2019-06-01T20:47:07.742Z,101243.47
2019-06-01T20:52:12.827Z,101242.33
2019-06-01T20:57:17.747Z,101222.45
2019-06-01T21:02:24.056Z,101233.94
2019-06-01T21:07:29.181Z,101237.01
2019-06-01T21:12:44.640Z,101235.02
2019-06-01T21:17:40.717Z,101238.64
2019-06-01T21:23:04.716Z,101225.22
2019-06-01T21:28:14.109Z,101225.22
2019-06-01T21:33:16.961Z,101225.66
2019-06-01T21:44:03.587Z,101231.50
2019-06-01T21:49:08.611Z,101229.72
2019-06-01T21:54:13.536Z,101235.61
2019-06-01T21:59:18.581Z,101234.30
2019-06-01T22:04:23.429Z,101233.66
2019-06-01T22:09:28.282Z,101244.53
2019-06-01T22:14:33.232Z,101247.69
2019-06-01T22:19:42.615Z,101252.66
2019-06-01T22:24:47.555Z,101255.05
2019-06-01T22:29:54.170Z,101256.22
2019-06-01T22:35:03.879Z,101247.30
2019-06-01T22:40:14.244Z,101252.23
2019-06-01T22:45:20.103Z,101243.87
2019-06-01T22:50:24.998Z,101249.61
2019-06-01T22:55:29.840Z,101255.13
2019-06-01T23:06:53.101Z,101255.26
2019-06-01T23:11:30.207Z,101248.52
2019-06-01T23:16:35.030Z,101258.47
2019-06-01T23:21:39.927Z,101255.80
2019-06-01T23:26:44.873Z,101261.59
2019-06-01T23:32:08.163Z,101263.73
2019-06-01T23:37:16.078Z,101256.42
2019-06-01T23:42:21.004Z,101258.23
2019-06-01T23:47:27.281Z,101257.53
2019-06-01T23:52:42.535Z,101255.73
2019-06-01T23:57:47.392Z,101251.20
